sensor_id;sensor_type;location;lat;lon;timestamp;P1;durP1;ratioP1;P2;durP2;ratioP2
73859;SDS011;62197;51.632;13.700;2023-06-19T00:00:36;11.15;;;9.48;;
73859;SDS011;62197;51.632;13.700;2023-06-19T00:03:02;11.55;;;9.55;;
73859;SDS011;62197;51.632;13.700;2023-06-19T00:05:27;11.07;;;8.52;;
73859;SDS011;62197;51.632;13.700;2023-06-19T00:07:53;11.25;;;9.18;;
73859;SDS011;62197;51.632;13.700;2023-06-19T00:10:18;11.35;;;9.30;;
73859;SDS011;62197;51.632;13.700;2023-06-19T00:12:44;10.10;;;8.90;;
73859;SDS011;62197;51.632;13.700;2023-06-19T00:15:09;10.75;;;9.52;;
73859;SDS011;62197;51.632;13.700;2023-06-19T00:17:35;12.65;;;9.82;;
73859;SDS011;62197;51.632;13.700;2023-06-19T00:20:02;10.45;;;8.95;;
73859;SDS011;62197;51.632;13.700;2023-06-19T00:22:28;12.65;;;10.02;;
73859;SDS011;62197;51.632;13.700;2023-06-19T00:24:53;12.88;;;10.73;;
73859;SDS011;62197;51.632;13.700;2023-06-19T00:27:19;12.38;;;9.68;;
73859;SDS011;62197;51.632;13.700;2023-06-19T00:29:44;11.45;;;9.68;;
73859;SDS011;62197;51.632;13.700;2023-06-19T00:32:10;12.27;;;9.30;;
73859;SDS011;62197;51.632;13.700;2023-06-19T00:34:35;12.48;;;10.10;;
73859;SDS011;62197;51.632;13.700;2023-06-19T00:37:02;12.80;;;9.93;;
73859;SDS011;62197;51.632;13.700;2023-06-19T00:39:27;13.15;;;10.55;;
73859;SDS011;62197;51.632;13.700;2023-06-19T00:41:53;11.75;;;9.20;;
73859;SDS011;62197;51.632;13.700;2023-06-19T00:44:19;12.15;;;10.02;;
73859;SDS011;62197;51.632;13.700;2023-06-19T00:46:45;12.27;;;10.18;;
73859;SDS011;62197;51.632;13.700;2023-06-19T00:49:11;12.88;;;10.30;;
73859;SDS011;62197;51.632;13.700;2023-06-19T00:51:37;14.32;;;10.75;;
73859;SDS011;62197;51.632;13.700;2023-06-19T00:54:03;13.05;;;10.43;;
73859;SDS011;62197;51.632;13.700;2023-06-19T00:56:29;12.48;;;10.00;;
73859;SDS011;62197;51.632;13.700;2023-06-19T00:58:55;12.48;;;9.70;;
73859;SDS011;62197;51.632;13.700;2023-06-19T01:01:20;11.02;;;8.60;;
73859;SDS011;62197;51.632;13.700;2023-06-19T01:03:46;12.95;;;10.27;;
73859;SDS011;62197;51.632;13.700;2023-06-19T01:06:15;11.50;;;9.70;;
73859;SDS011;62197;51.632;13.700;2023-06-19T01:08:52;11.60;;;9.32;;
73859;SDS011;62197;51.632;13.700;2023-06-19T01:11:21;12.70;;;9.88;;
73859;SDS011;62197;51.632;13.700;2023-06-19T01:13:54;12.18;;;10.18;;
73859;SDS011;62197;51.632;13.700;2023-06-19T01:16:24;13.45;;;10.57;;
73859;SDS011;62197;51.632;13.700;2023-06-19T01:18:50;12.55;;;10.15;;
73859;SDS011;62197;51.632;13.700;2023-06-19T01:21:16;12.88;;;11.07;;
73859;SDS011;62197;51.632;13.700;2023-06-19T01:23:42;13.40;;;10.00;;
73859;SDS011;62197;51.632;13.700;2023-06-19T01:26:08;12.75;;;10.25;;
73859;SDS011;62197;51.632;13.700;2023-06-19T01:28:35;13.25;;;9.15;;
73859;SDS011;62197;51.632;13.700;2023-06-19T01:31:02;12.52;;;10.40;;
73859;SDS011;62197;51.632;13.700;2023-06-19T01:33:31;12.85;;;10.27;;
73859;SDS011;62197;51.632;13.700;2023-06-19T01:35:58;14.02;;;11.23;;
73859;SDS011;62197;51.632;13.700;2023-06-19T01:38:24;12.13;;;9.45;;
73859;SDS011;62197;51.632;13.700;2023-06-19T01:40:52;12.50;;;9.75;;
73859;SDS011;62197;51.632;13.700;2023-06-19T01:43:19;12.95;;;10.38;;
73859;SDS011;62197;51.632;13.700;2023-06-19T01:45:45;13.30;;;10.32;;
73859;SDS011;62197;51.632;13.700;2023-06-19T01:48:11;13.48;;;10.93;;
73859;SDS011;62197;51.632;13.700;2023-06-19T01:50:36;13.68;;;10.65;;
73859;SDS011;62197;51.632;13.700;2023-06-19T01:53:01;12.23;;;10.05;;
73859;SDS011;62197;51.632;13.700;2023-06-19T01:55:27;13.18;;;10.13;;
73859;SDS011;62197;51.632;13.700;2023-06-19T01:57:52;11.82;;;9.82;;
73859;SDS011;62197;51.632;13.700;2023-06-19T02:00:18;16.00;;;11.57;;
73859;SDS011;62197;51.632;13.700;2023-06-19T02:02:43;12.80;;;10.52;;
73859;SDS011;62197;51.632;13.700;2023-06-19T02:05:09;13.68;;;10.63;;
73859;SDS011;62197;51.632;13.700;2023-06-19T02:07:34;13.57;;;10.23;;
73859;SDS011;62197;51.632;13.700;2023-06-19T02:09:59;13.93;;;10.63;;
73859;SDS011;62197;51.632;13.700;2023-06-19T02:12:25;11.05;;;9.82;;
73859;SDS011;62197;51.632;13.700;2023-06-19T02:14:50;13.02;;;10.25;;
73859;SDS011;62197;51.632;13.700;2023-06-19T02:17:15;13.35;;;10.55;;
73859;SDS011;62197;51.632;13.700;2023-06-19T02:19:41;15.23;;;12.52;;
73859;SDS011;62197;51.632;13.700;2023-06-19T02:22:07;15.25;;;12.02;;
73859;SDS011;62197;51.632;13.700;2023-06-19T02:24:33;14.05;;;11.07;;
73859;SDS011;62197;51.632;13.700;2023-06-19T02:26:58;12.85;;;10.25;;
73859;SDS011;62197;51.632;13.700;2023-06-19T02:29:24;11.65;;;9.82;;
73859;SDS011;62197;51.632;13.700;2023-06-19T02:31:49;13.23;;;10.98;;
73859;SDS011;62197;51.632;13.700;2023-06-19T02:34:15;14.75;;;11.93;;
73859;SDS011;62197;51.632;13.700;2023-06-19T02:36:40;14.38;;;11.02;;
73859;SDS011;62197;51.632;13.700;2023-06-19T02:39:06;13.30;;;11.35;;
73859;SDS011;62197;51.632;13.700;2023-06-19T02:41:31;12.40;;;10.40;;
73859;SDS011;62197;51.632;13.700;2023-06-19T02:43:57;16.70;;;11.85;;
73859;SDS011;62197;51.632;13.700;2023-06-19T02:46:25;14.75;;;12.15;;
73859;SDS011;62197;51.632;13.700;2023-06-19T02:48:51;13.30;;;10.38;;
73859;SDS011;62197;51.632;13.700;2023-06-19T02:51:16;14.20;;;10.38;;
73859;SDS011;62197;51.632;13.700;2023-06-19T02:53:41;13.55;;;11.45;;
73859;SDS011;62197;51.632;13.700;2023-06-19T02:56:08;13.60;;;10.82;;
73859;SDS011;62197;51.632;13.700;2023-06-19T02:58:34;13.73;;;10.63;;
73859;SDS011;62197;51.632;13.700;2023-06-19T03:01:00;16.17;;;11.50;;
73859;SDS011;62197;51.632;13.700;2023-06-19T03:03:25;14.70;;;11.68;;
73859;SDS011;62197;51.632;13.700;2023-06-19T03:05:50;13.52;;;11.20;;
73859;SDS011;62197;51.632;13.700;2023-06-19T03:08:16;13.68;;;10.50;;
73859;SDS011;62197;51.632;13.700;2023-06-19T03:10:41;13.35;;;10.45;;
73859;SDS011;62197;51.632;13.700;2023-06-19T03:13:07;14.93;;;11.45;;
73859;SDS011;62197;51.632;13.700;2023-06-19T03:15:32;14.48;;;12.02;;
73859;SDS011;62197;51.632;13.700;2023-06-19T03:17:57;15.57;;;10.88;;
73859;SDS011;62197;51.632;13.700;2023-06-19T03:20:23;15.25;;;11.90;;
73859;SDS011;62197;51.632;13.700;2023-06-19T03:22:48;15.02;;;11.25;;
73859;SDS011;62197;51.632;13.700;2023-06-19T03:25:13;12.35;;;10.07;;
73859;SDS011;62197;51.632;13.700;2023-06-19T03:27:39;13.77;;;10.70;;
73859;SDS011;62197;51.632;13.700;2023-06-19T03:30:04;15.15;;;11.68;;
73859;SDS011;62197;51.632;13.700;2023-06-19T03:32:31;13.20;;;11.32;;
73859;SDS011;62197;51.632;13.700;2023-06-19T03:34:59;14.00;;;10.95;;
73859;SDS011;62197;51.632;13.700;2023-06-19T03:37:26;12.48;;;10.27;;
73859;SDS011;62197;51.632;13.700;2023-06-19T03:39:51;15.85;;;11.63;;
73859;SDS011;62197;51.632;13.700;2023-06-19T03:42:16;14.73;;;11.52;;
73859;SDS011;62197;51.632;13.700;2023-06-19T03:44:42;14.73;;;11.80;;
73859;SDS011;62197;51.632;13.700;2023-06-19T03:47:07;17.00;;;11.25;;
73859;SDS011;62197;51.632;13.700;2023-06-19T03:49:33;18.60;;;11.75;;
73859;SDS011;62197;51.632;13.700;2023-06-19T03:51:58;14.13;;;10.27;;
73859;SDS011;62197;51.632;13.700;2023-06-19T03:54:23;18.90;;;11.68;;
73859;SDS011;62197;51.632;13.700;2023-06-19T03:56:51;14.82;;;11.38;;
73859;SDS011;62197;51.632;13.700;2023-06-19T03:59:16;17.92;;;13.10;;
73859;SDS011;62197;51.632;13.700;2023-06-19T04:01:41;13.80;;;11.15;;
73859;SDS011;62197;51.632;13.700;2023-06-19T04:04:07;15.38;;;11.85;;
73859;SDS011;62197;51.632;13.700;2023-06-19T04:06:32;14.82;;;11.75;;
73859;SDS011;62197;51.632;13.700;2023-06-19T04:08:58;15.90;;;12.20;;
73859;SDS011;62197;51.632;13.700;2023-06-19T04:11:24;18.00;;;13.20;;
73859;SDS011;62197;51.632;13.700;2023-06-19T04:13:49;15.23;;;11.80;;
73859;SDS011;62197;51.632;13.700;2023-06-19T04:16:14;14.88;;;12.05;;
73859;SDS011;62197;51.632;13.700;2023-06-19T04:18:40;15.13;;;12.13;;
73859;SDS011;62197;51.632;13.700;2023-06-19T04:21:05;14.95;;;11.63;;
73859;SDS011;62197;51.632;13.700;2023-06-19T04:23:30;13.52;;;11.40;;
73859;SDS011;62197;51.632;13.700;2023-06-19T04:25:56;13.57;;;10.70;;
73859;SDS011;62197;51.632;13.700;2023-06-19T04:28:21;13.30;;;11.32;;
73859;SDS011;62197;51.632;13.700;2023-06-19T04:30:46;16.45;;;10.95;;
73859;SDS011;62197;51.632;13.700;2023-06-19T04:33:12;13.48;;;11.68;;
73859;SDS011;62197;51.632;13.700;2023-06-19T04:35:37;14.40;;;11.05;;
73859;SDS011;62197;51.632;13.700;2023-06-19T04:38:05;12.75;;;10.13;;
73859;SDS011;62197;51.632;13.700;2023-06-19T04:40:33;12.38;;;11.07;;
73859;SDS011;62197;51.632;13.700;2023-06-19T04:43:00;15.48;;;11.93;;
73859;SDS011;62197;51.632;13.700;2023-06-19T04:45:27;13.35;;;10.63;;
73859;SDS011;62197;51.632;13.700;2023-06-19T04:47:52;13.60;;;11.07;;
73859;SDS011;62197;51.632;13.700;2023-06-19T04:50:18;14.38;;;11.70;;
73859;SDS011;62197;51.632;13.700;2023-06-19T04:52:43;16.00;;;11.80;;
73859;SDS011;62197;51.632;13.700;2023-06-19T04:55:08;13.57;;;10.60;;
73859;SDS011;62197;51.632;13.700;2023-06-19T04:57:35;16.95;;;11.38;;
73859;SDS011;62197;51.632;13.700;2023-06-19T05:00:02;15.63;;;11.80;;
73859;SDS011;62197;51.632;13.700;2023-06-19T05:02:30;14.02;;;11.32;;
73859;SDS011;62197;51.632;13.700;2023-06-19T05:04:55;14.30;;;11.40;;
73859;SDS011;62197;51.632;13.700;2023-06-19T05:07:21;14.35;;;12.32;;
73859;SDS011;62197;51.632;13.700;2023-06-19T05:09:46;15.00;;;12.00;;
73859;SDS011;62197;51.632;13.700;2023-06-19T05:12:11;15.77;;;11.32;;
73859;SDS011;62197;51.632;13.700;2023-06-19T05:14:37;19.15;;;12.32;;
73859;SDS011;62197;51.632;13.700;2023-06-19T05:17:02;18.17;;;12.73;;
73859;SDS011;62197;51.632;13.700;2023-06-19T05:19:28;13.93;;;11.65;;
73859;SDS011;62197;51.632;13.700;2023-06-19T05:21:53;12.93;;;11.27;;
73859;SDS011;62197;51.632;13.700;2023-06-19T05:24:18;14.27;;;11.70;;
73859;SDS011;62197;51.632;13.700;2023-06-19T05:26:44;16.60;;;11.68;;
73859;SDS011;62197;51.632;13.700;2023-06-19T05:29:09;12.55;;;11.25;;
73859;SDS011;62197;51.632;13.700;2023-06-19T05:31:36;13.20;;;10.93;;
73859;SDS011;62197;51.632;13.700;2023-06-19T05:34:01;13.55;;;11.15;;
73859;SDS011;62197;51.632;13.700;2023-06-19T05:36:26;15.13;;;11.10;;
73859;SDS011;62197;51.632;13.700;2023-06-19T05:38:52;13.30;;;10.63;;
73859;SDS011;62197;51.632;13.700;2023-06-19T05:41:17;13.50;;;11.50;;
73859;SDS011;62197;51.632;13.700;2023-06-19T05:43:42;13.88;;;10.73;;
73859;SDS011;62197;51.632;13.700;2023-06-19T05:46:08;14.52;;;10.85;;
73859;SDS011;62197;51.632;13.700;2023-06-19T05:48:33;13.38;;;10.25;;
73859;SDS011;62197;51.632;13.700;2023-06-19T05:50:59;14.10;;;10.77;;
73859;SDS011;62197;51.632;13.700;2023-06-19T05:53:24;14.05;;;11.07;;
73859;SDS011;62197;51.632;13.700;2023-06-19T05:55:50;13.70;;;11.45;;
73859;SDS011;62197;51.632;13.700;2023-06-19T05:58:15;13.63;;;10.70;;
73859;SDS011;62197;51.632;13.700;2023-06-19T06:00:44;13.82;;;12.13;;
73859;SDS011;62197;51.632;13.700;2023-06-19T06:03:10;14.55;;;12.57;;
73859;SDS011;62197;51.632;13.700;2023-06-19T06:05:35;14.13;;;11.68;;
73859;SDS011;62197;51.632;13.700;2023-06-19T06:08:01;14.25;;;11.43;;
73859;SDS011;62197;51.632;13.700;2023-06-19T06:10:26;14.85;;;11.25;;
73859;SDS011;62197;51.632;13.700;2023-06-19T06:12:52;12.68;;;10.63;;
73859;SDS011;62197;51.632;13.700;2023-06-19T06:15:17;13.63;;;11.00;;
73859;SDS011;62197;51.632;13.700;2023-06-19T06:17:43;13.52;;;11.80;;
73859;SDS011;62197;51.632;13.700;2023-06-19T06:20:08;12.93;;;10.88;;
73859;SDS011;62197;51.632;13.700;2023-06-19T06:22:36;15.05;;;11.30;;
73859;SDS011;62197;51.632;13.700;2023-06-19T06:25:02;15.05;;;13.45;;
73859;SDS011;62197;51.632;13.700;2023-06-19T06:27:27;13.93;;;12.27;;
73859;SDS011;62197;51.632;13.700;2023-06-19T06:29:52;15.75;;;11.60;;
73859;SDS011;62197;51.632;13.700;2023-06-19T06:32:18;15.02;;;12.02;;
73859;SDS011;62197;51.632;13.700;2023-06-19T06:34:43;13.75;;;11.45;;
73859;SDS011;62197;51.632;13.700;2023-06-19T06:37:09;14.90;;;11.27;;
73859;SDS011;62197;51.632;13.700;2023-06-19T06:39:34;12.77;;;10.93;;
73859;SDS011;62197;51.632;13.700;2023-06-19T06:42:00;16.55;;;11.90;;
73859;SDS011;62197;51.632;13.700;2023-06-19T06:44:26;16.63;;;11.35;;
73859;SDS011;62197;51.632;13.700;2023-06-19T06:46:51;13.35;;;11.52;;
73859;SDS011;62197;51.632;13.700;2023-06-19T06:49:17;12.07;;;10.75;;
73859;SDS011;62197;51.632;13.700;2023-06-19T06:51:42;13.20;;;11.65;;
73859;SDS011;62197;51.632;13.700;2023-06-19T06:54:07;13.32;;;11.40;;
73859;SDS011;62197;51.632;13.700;2023-06-19T06:56:33;11.93;;;10.48;;
73859;SDS011;62197;51.632;13.700;2023-06-19T06:58:58;13.15;;;11.23;;
73859;SDS011;62197;51.632;13.700;2023-06-19T07:01:23;12.80;;;10.75;;
73859;SDS011;62197;51.632;13.700;2023-06-19T07:03:49;12.95;;;10.40;;
73859;SDS011;62197;51.632;13.700;2023-06-19T07:06:14;14.68;;;11.02;;
73859;SDS011;62197;51.632;13.700;2023-06-19T07:08:39;15.55;;;10.75;;
73859;SDS011;62197;51.632;13.700;2023-06-19T07:11:06;13.55;;;11.38;;
73859;SDS011;62197;51.632;13.700;2023-06-19T07:13:34;16.20;;;11.75;;
73859;SDS011;62197;51.632;13.700;2023-06-19T07:15:59;14.80;;;10.95;;
73859;SDS011;62197;51.632;13.700;2023-06-19T07:18:26;13.23;;;11.32;;
73859;SDS011;62197;51.632;13.700;2023-06-19T07:20:51;13.38;;;11.05;;
73859;SDS011;62197;51.632;13.700;2023-06-19T07:23:17;14.55;;;11.18;;
73859;SDS011;62197;51.632;13.700;2023-06-19T07:25:48;12.57;;;10.93;;
73859;SDS011;62197;51.632;13.700;2023-06-19T07:28:13;14.77;;;10.73;;
73859;SDS011;62197;51.632;13.700;2023-06-19T07:30:39;15.25;;;10.32;;
73859;SDS011;62197;51.632;13.700;2023-06-19T07:33:04;10.90;;;9.55;;
73859;SDS011;62197;51.632;13.700;2023-06-19T07:35:29;13.70;;;10.85;;
73859;SDS011;62197;51.632;13.700;2023-06-19T07:37:55;11.27;;;9.20;;
73859;SDS011;62197;51.632;13.700;2023-06-19T07:40:20;9.75;;;8.75;;
73859;SDS011;62197;51.632;13.700;2023-06-19T07:42:46;10.88;;;9.63;;
73859;SDS011;62197;51.632;13.700;2023-06-19T07:45:11;11.35;;;9.45;;
73859;SDS011;62197;51.632;13.700;2023-06-19T07:47:37;10.05;;;8.52;;
73859;SDS011;62197;51.632;13.700;2023-06-19T07:50:03;11.50;;;8.35;;
73859;SDS011;62197;51.632;13.700;2023-06-19T07:52:28;9.95;;;8.82;;
73859;SDS011;62197;51.632;13.700;2023-06-19T07:54:54;10.35;;;7.93;;
73859;SDS011;62197;51.632;13.700;2023-06-19T07:57:21;8.90;;;8.00;;
73859;SDS011;62197;51.632;13.700;2023-06-19T07:59:48;10.07;;;8.38;;
73859;SDS011;62197;51.632;13.700;2023-06-19T08:02:14;10.73;;;8.45;;
73859;SDS011;62197;51.632;13.700;2023-06-19T08:04:39;9.95;;;8.15;;
73859;SDS011;62197;51.632;13.700;2023-06-19T08:07:05;11.63;;;8.10;;
73859;SDS011;62197;51.632;13.700;2023-06-19T08:09:30;11.25;;;7.80;;
73859;SDS011;62197;51.632;13.700;2023-06-19T08:11:56;10.20;;;8.40;;
73859;SDS011;62197;51.632;13.700;2023-06-19T08:14:22;9.43;;;7.53;;
73859;SDS011;62197;51.632;13.700;2023-06-19T08:16:47;8.63;;;7.35;;
73859;SDS011;62197;51.632;13.700;2023-06-19T08:19:13;9.77;;;8.52;;
73859;SDS011;62197;51.632;13.700;2023-06-19T08:21:38;9.30;;;6.60;;
73859;SDS011;62197;51.632;13.700;2023-06-19T08:24:03;8.27;;;6.85;;
73859;SDS011;62197;51.632;13.700;2023-06-19T08:26:29;9.88;;;7.97;;
73859;SDS011;62197;51.632;13.700;2023-06-19T08:28:54;10.65;;;7.57;;
73859;SDS011;62197;51.632;13.700;2023-06-19T08:31:20;13.70;;;6.90;;
73859;SDS011;62197;51.632;13.700;2023-06-19T08:33:49;11.05;;;7.53;;
73859;SDS011;62197;51.632;13.700;2023-06-19T08:36:14;7.65;;;6.60;;
73859;SDS011;62197;51.632;13.700;2023-06-19T08:38:40;10.63;;;7.47;;
73859;SDS011;62197;51.632;13.700;2023-06-19T08:41:05;10.70;;;7.50;;
73859;SDS011;62197;51.632;13.700;2023-06-19T08:43:30;10.27;;;6.93;;
73859;SDS011;62197;51.632;13.700;2023-06-19T08:46:01;10.38;;;6.75;;
73859;SDS011;62197;51.632;13.700;2023-06-19T08:48:30;8.75;;;7.20;;
73859;SDS011;62197;51.632;13.700;2023-06-19T08:50:56;8.98;;;6.90;;
73859;SDS011;62197;51.632;13.700;2023-06-19T08:53:21;8.10;;;7.30;;
73859;SDS011;62197;51.632;13.700;2023-06-19T08:55:47;13.65;;;6.95;;
73859;SDS011;62197;51.632;13.700;2023-06-19T08:58:19;8.18;;;6.40;;
73859;SDS011;62197;51.632;13.700;2023-06-19T09:00:47;7.97;;;6.78;;
73859;SDS011;62197;51.632;13.700;2023-06-19T09:03:12;8.25;;;6.80;;
73859;SDS011;62197;51.632;13.700;2023-06-19T09:05:45;10.75;;;6.88;;
73859;SDS011;62197;51.632;13.700;2023-06-19T09:08:14;10.05;;;7.32;;
73859;SDS011;62197;51.632;13.700;2023-06-19T09:10:53;10.35;;;6.50;;
73859;SDS011;62197;51.632;13.700;2023-06-19T09:13:24;9.20;;;6.70;;
73859;SDS011;62197;51.632;13.700;2023-06-19T09:15:56;9.27;;;6.72;;
73859;SDS011;62197;51.632;13.700;2023-06-19T09:18:25;8.30;;;6.88;;
73859;SDS011;62197;51.632;13.700;2023-06-19T09:20:52;9.48;;;6.95;;
73859;SDS011;62197;51.632;13.700;2023-06-19T09:23:19;8.05;;;7.25;;
73859;SDS011;62197;51.632;13.700;2023-06-19T09:28:18;7.70;;;6.90;;
73859;SDS011;62197;51.632;13.700;2023-06-19T09:30:54;8.13;;;7.13;;
73859;SDS011;62197;51.632;13.700;2023-06-19T09:33:30;8.63;;;7.22;;
73859;SDS011;62197;51.632;13.700;2023-06-19T09:35:57;9.50;;;6.95;;
73859;SDS011;62197;51.632;13.700;2023-06-19T09:38:25;8.18;;;6.60;;
73859;SDS011;62197;51.632;13.700;2023-06-19T09:40:52;8.43;;;6.95;;
73859;SDS011;62197;51.632;13.700;2023-06-19T09:43:19;8.77;;;7.07;;
73859;SDS011;62197;51.632;13.700;2023-06-19T09:45:53;8.25;;;6.82;;
73859;SDS011;62197;51.632;13.700;2023-06-19T09:48:22;9.45;;;7.07;;
73859;SDS011;62197;51.632;13.700;2023-06-19T09:50:54;9.60;;;7.07;;
73859;SDS011;62197;51.632;13.700;2023-06-19T09:53:24;8.35;;;6.03;;
73859;SDS011;62197;51.632;13.700;2023-06-19T09:55:50;8.90;;;6.53;;
73859;SDS011;62197;51.632;13.700;2023-06-19T09:58:18;9.05;;;6.53;;
73859;SDS011;62197;51.632;13.700;2023-06-19T10:00:45;10.18;;;7.05;;
73859;SDS011;62197;51.632;13.700;2023-06-19T10:03:12;9.95;;;7.15;;
73859;SDS011;62197;51.632;13.700;2023-06-19T10:05:38;7.60;;;6.85;;
73859;SDS011;62197;51.632;13.700;2023-06-19T10:08:04;10.70;;;7.47;;
73859;SDS011;62197;51.632;13.700;2023-06-19T10:10:30;10.48;;;7.15;;
73859;SDS011;62197;51.632;13.700;2023-06-19T10:12:57;9.13;;;7.18;;
73859;SDS011;62197;51.632;13.700;2023-06-19T10:15:25;8.02;;;7.07;;
73859;SDS011;62197;51.632;13.700;2023-06-19T10:18:13;9.25;;;7.25;;
73859;SDS011;62197;51.632;13.700;2023-06-19T10:20:41;8.88;;;6.85;;
73859;SDS011;62197;51.632;13.700;2023-06-19T10:23:40;8.15;;;6.68;;
73859;SDS011;62197;51.632;13.700;2023-06-19T10:26:02;8.38;;;6.75;;
73859;SDS011;62197;51.632;13.700;2023-06-19T10:28:28;9.30;;;6.95;;
73859;SDS011;62197;51.632;13.700;2023-06-19T10:30:55;8.82;;;6.75;;
73859;SDS011;62197;51.632;13.700;2023-06-19T10:33:26;9.40;;;7.25;;
73859;SDS011;62197;51.632;13.700;2023-06-19T10:35:53;8.77;;;6.65;;
73859;SDS011;62197;51.632;13.700;2023-06-19T10:38:19;9.18;;;7.07;;
73859;SDS011;62197;51.632;13.700;2023-06-19T10:40:45;8.52;;;6.82;;
73859;SDS011;62197;51.632;13.700;2023-06-19T10:43:12;9.60;;;7.20;;
73859;SDS011;62197;51.632;13.700;2023-06-19T10:45:43;8.57;;;6.65;;
73859;SDS011;62197;51.632;13.700;2023-06-19T10:48:09;7.93;;;7.13;;
73859;SDS011;62197;51.632;13.700;2023-06-19T10:50:35;9.48;;;7.70;;
73859;SDS011;62197;51.632;13.700;2023-06-19T10:53:03;15.45;;;7.97;;
73859;SDS011;62197;51.632;13.700;2023-06-19T10:55:29;8.95;;;7.95;;
73859;SDS011;62197;51.632;13.700;2023-06-19T10:57:54;8.10;;;7.22;;
73859;SDS011;62197;51.632;13.700;2023-06-19T11:00:31;8.13;;;6.50;;
73859;SDS011;62197;51.632;13.700;2023-06-19T11:02:58;8.30;;;6.40;;
73859;SDS011;62197;51.632;13.700;2023-06-19T11:05:24;8.85;;;7.13;;
73859;SDS011;62197;51.632;13.700;2023-06-19T11:07:52;8.77;;;6.82;;
73859;SDS011;62197;51.632;13.700;2023-06-19T11:10:19;7.55;;;6.35;;
73859;SDS011;62197;51.632;13.700;2023-06-19T11:12:45;7.47;;;6.38;;
73859;SDS011;62197;51.632;13.700;2023-06-19T11:15:11;7.40;;;6.45;;
73859;SDS011;62197;51.632;13.700;2023-06-19T11:17:36;7.32;;;6.18;;
73859;SDS011;62197;51.632;13.700;2023-06-19T11:20:02;6.80;;;5.80;;
73859;SDS011;62197;51.632;13.700;2023-06-19T11:22:36;7.57;;;5.95;;
73859;SDS011;62197;51.632;13.700;2023-06-19T11:25:03;7.25;;;6.13;;
73859;SDS011;62197;51.632;13.700;2023-06-19T11:27:30;8.68;;;5.97;;
73859;SDS011;62197;51.632;13.700;2023-06-19T11:29:58;6.90;;;5.70;;
73859;SDS011;62197;51.632;13.700;2023-06-19T11:32:29;6.22;;;5.38;;
73859;SDS011;62197;51.632;13.700;2023-06-19T11:34:56;6.97;;;5.72;;
73859;SDS011;62197;51.632;13.700;2023-06-19T11:37:22;7.43;;;5.80;;
73859;SDS011;62197;51.632;13.700;2023-06-19T11:39:48;8.98;;;6.18;;
73859;SDS011;62197;51.632;13.700;2023-06-19T11:42:15;8.07;;;5.82;;
73859;SDS011;62197;51.632;13.700;2023-06-19T11:45:03;8.50;;;6.65;;
73859;SDS011;62197;51.632;13.700;2023-06-19T11:47:33;7.78;;;6.40;;
73859;SDS011;62197;51.632;13.700;2023-06-19T11:49:59;7.95;;;6.72;;
73859;SDS011;62197;51.632;13.700;2023-06-19T11:52:25;7.63;;;6.55;;
73859;SDS011;62197;51.632;13.700;2023-06-19T11:54:50;6.53;;;5.72;;
73859;SDS011;62197;51.632;13.700;2023-06-19T11:57:16;6.22;;;5.63;;
73859;SDS011;62197;51.632;13.700;2023-06-19T11:59:41;8.00;;;6.88;;
73859;SDS011;62197;51.632;13.700;2023-06-19T12:02:08;6.13;;;5.53;;
73859;SDS011;62197;51.632;13.700;2023-06-19T12:04:33;6.55;;;5.70;;
73859;SDS011;62197;51.632;13.700;2023-06-19T12:06:59;8.98;;;6.82;;
73859;SDS011;62197;51.632;13.700;2023-06-19T12:09:25;6.68;;;5.95;;
73859;SDS011;62197;51.632;13.700;2023-06-19T12:11:51;7.32;;;6.05;;
73859;SDS011;62197;51.632;13.700;2023-06-19T12:14:16;8.23;;;6.43;;
73859;SDS011;62197;51.632;13.700;2023-06-19T12:16:43;7.40;;;6.65;;
73859;SDS011;62197;51.632;13.700;2023-06-19T12:19:10;8.55;;;6.43;;
73859;SDS011;62197;51.632;13.700;2023-06-19T12:21:35;8.20;;;6.82;;
73859;SDS011;62197;51.632;13.700;2023-06-19T12:24:00;9.20;;;6.75;;
73859;SDS011;62197;51.632;13.700;2023-06-19T12:26:26;9.43;;;7.28;;
73859;SDS011;62197;51.632;13.700;2023-06-19T12:28:51;7.80;;;7.00;;
73859;SDS011;62197;51.632;13.700;2023-06-19T12:31:17;8.07;;;6.80;;
73859;SDS011;62197;51.632;13.700;2023-06-19T12:33:43;7.28;;;6.50;;
73859;SDS011;62197;51.632;13.700;2023-06-19T12:36:10;7.93;;;6.82;;
73859;SDS011;62197;51.632;13.700;2023-06-19T12:38:37;6.70;;;6.05;;
73859;SDS011;62197;51.632;13.700;2023-06-19T12:41:03;7.25;;;6.15;;
73859;SDS011;62197;51.632;13.700;2023-06-19T12:43:29;8.05;;;5.82;;
73859;SDS011;62197;51.632;13.700;2023-06-19T12:45:56;7.53;;;5.68;;
73859;SDS011;62197;51.632;13.700;2023-06-19T12:48:22;8.38;;;6.38;;
73859;SDS011;62197;51.632;13.700;2023-06-19T12:50:47;6.65;;;5.93;;
73859;SDS011;62197;51.632;13.700;2023-06-19T12:53:12;7.07;;;6.38;;
73859;SDS011;62197;51.632;13.700;2023-06-19T12:55:38;9.10;;;6.10;;
73859;SDS011;62197;51.632;13.700;2023-06-19T12:58:03;8.35;;;6.18;;
73859;SDS011;62197;51.632;13.700;2023-06-19T13:00:28;11.40;;;6.53;;
73859;SDS011;62197;51.632;13.700;2023-06-19T13:02:54;7.65;;;6.22;;
73859;SDS011;62197;51.632;13.700;2023-06-19T13:05:19;7.07;;;5.90;;
73859;SDS011;62197;51.632;13.700;2023-06-19T13:07:44;7.40;;;6.57;;
73859;SDS011;62197;51.632;13.700;2023-06-19T13:10:10;9.63;;;6.20;;
73859;SDS011;62197;51.632;13.700;2023-06-19T13:12:35;8.70;;;6.10;;
73859;SDS011;62197;51.632;13.700;2023-06-19T13:15:00;7.80;;;5.80;;
73859;SDS011;62197;51.632;13.700;2023-06-19T13:17:26;8.43;;;6.10;;
73859;SDS011;62197;51.632;13.700;2023-06-19T13:19:51;8.95;;;6.38;;
73859;SDS011;62197;51.632;13.700;2023-06-19T13:22:16;7.75;;;5.97;;
73859;SDS011;62197;51.632;13.700;2023-06-19T13:24:42;9.07;;;5.95;;
73859;SDS011;62197;51.632;13.700;2023-06-19T13:27:07;6.63;;;5.93;;
73859;SDS011;62197;51.632;13.700;2023-06-19T13:29:33;6.75;;;5.82;;
73859;SDS011;62197;51.632;13.700;2023-06-19T13:31:58;10.70;;;6.65;;
73859;SDS011;62197;51.632;13.700;2023-06-19T13:34:24;7.00;;;5.95;;
73859;SDS011;62197;51.632;13.700;2023-06-19T13:36:49;7.57;;;6.20;;
73859;SDS011;62197;51.632;13.700;2023-06-19T13:39:14;7.28;;;6.40;;
73859;SDS011;62197;51.632;13.700;2023-06-19T13:41:40;7.50;;;6.22;;
73859;SDS011;62197;51.632;13.700;2023-06-19T13:44:05;7.13;;;6.43;;
73859;SDS011;62197;51.632;13.700;2023-06-19T13:46:30;7.45;;;6.65;;
73859;SDS011;62197;51.632;13.700;2023-06-19T13:48:56;9.25;;;6.30;;
73859;SDS011;62197;51.632;13.700;2023-06-19T13:51:22;6.95;;;6.20;;
73859;SDS011;62197;51.632;13.700;2023-06-19T13:53:49;6.95;;;6.10;;
73859;SDS011;62197;51.632;13.700;2023-06-19T13:56:15;9.50;;;6.18;;
73859;SDS011;62197;51.632;13.700;2023-06-19T13:58:41;9.57;;;6.55;;
73859;SDS011;62197;51.632;13.700;2023-06-19T14:01:07;7.47;;;5.72;;
73859;SDS011;62197;51.632;13.700;2023-06-19T14:03:33;6.40;;;5.80;;
73859;SDS011;62197;51.632;13.700;2023-06-19T14:05:58;8.73;;;6.72;;
73859;SDS011;62197;51.632;13.700;2023-06-19T14:08:24;10.63;;;6.80;;
73859;SDS011;62197;51.632;13.700;2023-06-19T14:10:49;7.95;;;7.18;;
73859;SDS011;62197;51.632;13.700;2023-06-19T14:13:15;7.45;;;6.75;;
73859;SDS011;62197;51.632;13.700;2023-06-19T14:15:41;7.07;;;6.00;;
73859;SDS011;62197;51.632;13.700;2023-06-19T14:18:06;8.55;;;6.50;;